Change the Weather History Date:

Monday, May 6, 2013

  Actual Average Record
Temperature  
Mean Temperature 40 °F -  
Max Temperature 46 °F - - ()
Min Temperature 35 °F - - ()
Degree Days  
Heating Degree Days 24    
Moisture  
Dew Point 23 °F    
Average Humidity 56    
Maximum Humidity 87    
Minimum Humidity 23    
Precipitation  
Precipitation 0.00 in - - ()
Sea Level Pressure  
Sea Level Pressure 30.01 in    
Wind  
Wind Speed 12 mph (SE)    
Max Wind Speed 28 mph    
Max Gust Speed 36 mph    
Visibility 10 miles    
Events Fog , Snow , Thunderstorm    
T = Trace of Precipitation, MM = Missing Value Source: NWS Daily Summary

Daily Weather History Graph

Daily Weather History Graph

Search for Another Location

Airport or City:

Trip Planner

Search our weather history database for the weather conditions in past years. The results will help you decide how hot, cold, wet, or windy it might be!

Date:

Astronomy

May. 06, 2013 Rise Set
Actual Time 5:59 AM MDT 8:08 PM MDT
Civil Twilight 5:29 AM MDT 8:38 PM MDT
Nautical Twilight 4:52 AM MDT 9:15 PM MDT
Astronomical Twilight 4:12 AM MDT 9:55 PM MDT
Moon 4:03 AM MDT (5/6) 5:10 PM MDT (5/6)
Length of Visible Light 15h 08m
Length of Day
14h 08m
Waning Crescent, 10% of the Moon is Illuminated
May 6
Waning Crescent
May 9
New
May 17
First Quarter
May 24
Full
May 31
Last Quarter

Hourly Weather History & Observations

Time (MDT) Temp. Windchill Dew Point Humidity Pressure Visibility Wind Dir Wind Speed Gust Speed Precip Events Conditions
12:36 AM 37.4 °F 28.5 °F 26.6 °F 65% 30.05 in 10.0 mi East 15.0 mph - N/A   Mostly Cloudy
12:56 AM 35.6 °F 25.5 °F 26.6 °F 70% 30.05 in 10.0 mi East 17.3 mph 23.0 mph N/A   Overcast
1:16 AM 35.6 °F 25.5 °F 28.4 °F 75% 30.05 in 10.0 mi East 17.3 mph - N/A   Scattered Clouds
1:36 AM 35.6 °F 25.2 °F 28.4 °F 75% 30.04 in 10.0 mi East 18.4 mph 21.9 mph N/A   Clear
1:56 AM 35.6 °F 25.9 °F 28.4 °F 75% 30.04 in 10.0 mi East 16.1 mph 20.7 mph N/A   Clear
2:16 AM 35.6 °F 25.9 °F 28.4 °F 75% 30.03 in 10.0 mi ESE 16.1 mph - N/A   Clear
2:36 AM 35.6 °F 26.2 °F 26.6 °F 70% 30.03 in 10.0 mi ESE 15.0 mph - N/A   Clear
2:56 AM 35.6 °F 25.5 °F 26.6 °F 70% 30.03 in 10.0 mi East 17.3 mph - N/A   Clear
3:16 AM 35.6 °F 26.6 °F 26.6 °F 70% 30.03 in 10.0 mi ESE 13.8 mph 18.4 mph N/A   Clear
3:36 AM 35.6 °F 27.5 °F 26.6 °F 70% 30.03 in 10.0 mi ESE 11.5 mph - N/A   Clear
3:56 AM 35.6 °F 27.5 °F 24.8 °F 65% 30.03 in 10.0 mi SSE 11.5 mph - N/A   Clear
4:16 AM 37.4 °F 29.8 °F 19.4 °F 48% 30.03 in 10.0 mi South 11.5 mph - N/A   Clear
4:36 AM 37.4 °F 30.8 °F 19.4 °F 48% 30.03 in 10.0 mi South 9.2 mph - N/A   Clear
4:56 AM 37.4 °F 29.3 °F 15.8 °F 41% 30.03 in 10.0 mi South 12.7 mph 18.4 mph N/A   Clear
5:16 AM 39.2 °F 32.0 °F 15.8 °F 39% 30.03 in 10.0 mi South 11.5 mph - N/A   Scattered Clouds
5:36 AM 37.4 °F 29.8 °F 14.0 °F 38% 30.03 in 10.0 mi SSW 11.5 mph - N/A   Overcast
5:56 AM 37.4 °F 29.8 °F 14.0 °F 38% 30.03 in 10.0 mi SSW 11.5 mph - N/A   Overcast
6:16 AM 37.4 °F 29.3 °F 15.8 °F 41% 30.03 in 10.0 mi SW 12.7 mph 18.4 mph N/A   Mostly Cloudy
6:36 AM 37.4 °F 29.3 °F 17.6 °F 45% 30.03 in 10.0 mi SW 12.7 mph 16.1 mph N/A   Mostly Cloudy
6:56 AM 37.4 °F 30.8 °F 17.6 °F 45% 30.04 in 10.0 mi WSW 9.2 mph - N/A   Scattered Clouds
7:16 AM 37.4 °F 29.3 °F 17.6 °F 45% 30.04 in 10.0 mi WSW 12.7 mph 17.3 mph N/A   Clear
7:36 AM 37.4 °F 32.8 °F 17.6 °F 45% 30.05 in 10.0 mi WSW 5.8 mph - N/A   Scattered Clouds
7:56 AM 37.4 °F 30.3 °F 17.6 °F 45% 30.05 in 10.0 mi West 10.4 mph - N/A   Overcast
8:16 AM 39.2 °F 34.2 °F 19.4 °F 45% 30.05 in 10.0 mi WNW 6.9 mph - N/A   Overcast
8:36 AM 39.2 °F 34.2 °F 19.4 °F 45% 30.05 in 10.0 mi WNW 6.9 mph - N/A   Overcast
8:56 AM 39.2 °F 34.2 °F 19.4 °F 45% 30.05 in 10.0 mi NW 6.9 mph - N/A   Overcast
9:16 AM 41.0 °F 36.4 °F 19.4 °F 42% 30.05 in 10.0 mi NW 6.9 mph - N/A   Overcast
9:36 AM 41.0 °F 35.8 °F 19.4 °F 42% 30.05 in 10.0 mi NW 8.1 mph - N/A   Overcast
9:56 AM 41.0 °F 36.4 °F 19.4 °F 42% 30.05 in 10.0 mi WNW 6.9 mph - N/A   Overcast
10:16 AM 41.0 °F 36.4 °F 17.6 °F 39% 30.05 in 10.0 mi WNW 6.9 mph - N/A   Overcast
10:36 AM 41.0 °F 36.4 °F 19.4 °F 42% 30.05 in 10.0 mi NW 6.9 mph - N/A   Overcast
10:56 AM 41.0 °F 37.1 °F 19.4 °F 42% 30.05 in 10.0 mi West 5.8 mph - N/A   Overcast
11:16 AM 42.8 °F 40.1 °F 17.6 °F 36% 30.05 in 10.0 mi NW 4.6 mph - N/A   Mostly Cloudy
11:36 AM 42.8 °F 39.3 °F 17.6 °F 36% 30.04 in 10.0 mi West 5.8 mph - N/A   Scattered Clouds
11:56 AM 42.8 °F 41.1 °F 19.4 °F 39% 30.04 in 10.0 mi WSW 3.5 mph - N/A   Mostly Cloudy
12:16 PM 44.6 °F 41.4 °F 17.6 °F 34% 30.03 in 10.0 mi West 5.8 mph - N/A   Scattered Clouds
12:36 PM 46.4 °F 42.9 °F 17.6 °F 32% 30.03 in 10.0 mi NW 6.9 mph - N/A   Mostly Cloudy
12:56 PM 44.6 °F - 17.6 °F 34% 30.02 in 10.0 mi Calm Calm - N/A   Overcast
1:16 PM 44.6 °F - 17.6 °F 34% 30.01 in 10.0 mi Calm Calm - N/A   Overcast
1:36 PM 46.4 °F - 14.0 °F 27% 30.00 in 10.0 mi Calm Calm - N/A   Overcast
1:56 PM 46.4 °F 41.9 °F 12.2 °F 25% 29.99 in 10.0 mi ESE 9.2 mph - N/A   Mostly Cloudy
2:16 PM 46.4 °F 43.5 °F 12.2 °F 25% 29.99 in 10.0 mi East 5.8 mph - N/A   Mostly Cloudy
2:36 PM 46.4 °F 40.1 °F 10.4 °F 23% 29.97 in 10.0 mi SE 15.0 mph - N/A Thunderstorm Thunderstorm
2:56 PM 46.4 °F 43.5 °F 12.2 °F 25% 29.97 in 10.0 mi SE 5.8 mph - N/A   Mostly Cloudy
3:16 PM 46.4 °F 44.3 °F 10.4 °F 23% 29.97 in 10.0 mi ESE 4.6 mph 18.4 mph N/A   Overcast
3:36 PM 46.4 °F 41.9 °F 10.4 °F 23% 29.96 in 10.0 mi ESE 9.2 mph - N/A   Overcast
3:56 PM 46.4 °F 41.9 °F 14.0 °F 27% 29.96 in 10.0 mi ESE 9.2 mph - N/A   Mostly Cloudy
4:16 PM 46.4 °F 40.1 °F 24.8 °F 43% 29.95 in 10.0 mi ENE 15.0 mph 25.3 mph N/A   Mostly Cloudy
4:56 PM 44.6 °F 40.2 °F 28.4 °F 53% 29.96 in 10.0 mi NE 8.1 mph 21.9 mph N/A   Scattered Clouds
5:16 PM 42.8 °F 35.4 °F 30.2 °F 61% 29.95 in 10.0 mi ENE 15.0 mph 23.0 mph N/A   Scattered Clouds
5:36 PM 42.8 °F 36.6 °F 28.4 °F 57% 29.96 in 10.0 mi East 11.5 mph 17.3 mph N/A Thunderstorm Scattered Clouds
5:56 PM 42.8 °F 34.5 °F 28.4 °F 57% 29.95 in 10.0 mi East 18.4 mph 27.6 mph N/A Thunderstorm Thunderstorm
6:16 PM 37.4 °F 25.4 °F 32.0 °F 81% 29.94 in 10.0 mi East 27.6 mph 35.7 mph N/A Thunderstorm Mostly Cloudy
6:36 PM 37.4 °F 26.1 °F 32.0 °F 81% 29.95 in 10.0 mi East 24.2 mph 31.1 mph N/A   Overcast
6:56 PM 37.4 °F 26.4 °F 32.0 °F 81% 29.96 in 5.0 mi East 23.0 mph 29.9 mph N/A Snow Light Snow
7:16 PM 35.6 °F 24.8 °F 32.0 °F 87% 29.96 in 3.0 mi East 19.6 mph 27.6 mph N/A Snow Light Snow
7:36 PM 35.6 °F 26.2 °F 32.0 °F 87% 29.97 in 10.0 mi East 15.0 mph - N/A Snow Light Snow
7:56 PM 35.6 °F 27.1 °F 32.0 °F 87% 29.97 in 10.0 mi East 12.7 mph - N/A   Overcast
8:16 PM 35.6 °F 28.0 °F 30.2 °F 81% 29.98 in 10.0 mi East 10.4 mph - N/A Thunderstorm Overcast
8:36 PM 35.6 °F 29.2 °F 32.0 °F 87% 29.98 in 10.0 mi East 8.1 mph - N/A   Overcast
8:56 PM 35.6 °F 29.2 °F 32.0 °F 87% 29.98 in 10.0 mi ESE 8.1 mph - N/A   Overcast
9:16 PM 35.6 °F 30.7 °F 32.0 °F 87% 29.98 in 10.0 mi SE 5.8 mph - N/A   Overcast
9:36 PM 35.6 °F - 32.0 °F 87% 29.99 in 10.0 mi Calm Calm - N/A   Overcast
9:56 PM 35.6 °F 30.7 °F 32.0 °F 87% 29.99 in 10.0 mi SSE 5.8 mph - N/A   Overcast
10:16 PM 35.6 °F 30.7 °F 32.0 °F 87% 29.99 in 10.0 mi South 5.8 mph - N/A   Mostly Cloudy
10:36 PM 35.6 °F 29.2 °F 32.0 °F 87% 30.00 in 10.0 mi South 8.1 mph - N/A   Mostly Cloudy
10:56 PM 35.6 °F 29.2 °F 32.0 °F 87% 29.99 in 10.0 mi South 8.1 mph - N/A   Mostly Cloudy
11:16 PM 35.6 °F 29.9 °F 32.0 °F 87% 29.99 in 7.0 mi SSW 6.9 mph - N/A   Mostly Cloudy
11:36 PM 35.6 °F 30.7 °F 32.0 °F 87% 29.99 in 0.5 mi South 5.8 mph - N/A Fog Fog
11:56 PM 35.6 °F 31.7 °F 32.0 °F 87% 29.99 in 0.2 mi SSW 4.6 mph - N/A Fog Fog